ACT        NSW        VIC        QLD        SA        WA        TAS        NT        INFO        CALC            by VK5ZD

Past Date/Time: (dd/mm/yyyy hh:mm or blank for current data)    

  Atmospheric Gas Attenuation - ITU Rec 676-11   --------------- dB/100km ---------------
WA Stations Date Time Temp RH % AH g/m3 Dew Point Wind Direction Speed kph Gust kph Barometer mB Rainfall Since 9am 24GHz 47GHz 76GHz 122GHz 134GHz 241GHz
Albany Airport 06/09 07:00 12.2 72 7.77 7.3 20 32 1024.3 7.6 17.9 25.4 37.7 98.8 90.3 309.6
Badgingarra 06/09 07:00 11.1 95 9.57 10.3 26 35 1013.1 0.2 21.8 28.3 45.3 119.1 115.4 397.7
Barimunya 06/09 07:00 17.3 48 7.07 6.2 20 26 1013.8 0 16.2 22.6 32.4 84.8 75.4 258.3
Barrow Island 06/09 07:00 21 60 10.99 12.9 37 43 1017.4 0 24.3 27.7 45.7 120.1 120.0 415.0
Bickley 06/09 07:00 10.8 93 9.19 9.7 24 43 1013.1 5.2 21.0 27.8 43.8 115.2 110.5 380.4
Boolgeeda 06/09 07:00 13.8 70 8.34 8.4 7 11 1015.3 0 19.0 25.6 38.8 101.9 95.1 327.1
Bridgetown 06/09 07:00 9.2 88 7.86 7.3 6 11 1024.6 13.6 18.2 26.5 39.6 103.6 95.1 326.1
Broome 06/09 07:00 25.6 77 18.33 21.3 15 19 1015 0 39.5 38.6 73.6 194.6 213.1 740.1
Bunbury 06/09 07:00 10.9 92 9.15 9.7 17 26 1023.9 2.8 20.9 28.1 44.1 115.8 110.8 381.2
Busselton Airport 06/09 07:00 10.7 82 8.06 7.8 20 26 1024.5 13 18.6 26.3 39.7 103.9 96.0 329.4
Cape Leeuwin 06/09 07:00 13.2 58 6.66 5.1 39 52 1025.6 3.6 15.5 23.5 33.0 86.2 75.1 256.5
Cape Naturaliste 06/09 07:00 10.3 78 7.47 6.6 28 35 1023.9 13 17.3 25.5 37.4 97.9 88.4 303.0
Carnarvon 06/09 07:00 16.9 74 10.64 12.2 20 30 1018.1 2.4 23.8 28.5 46.7 122.7 121.8 420.7
Christmas Creek 06/09 07:00 19.1 47 7.7 7.5 6 9 1014.2 0 17.4 23.1 34.0 89.0 81.1 278.7
Christmas Island 06/09 07:00 23.1 83 17.16 20.1 19 28 1017.3 0 37.2 37.6 70.7 186.8 202.6 703.4
Collie East 06/09 07:00 10.3 83 7.95 7.5 11 24 1013.1 3.8 18.4 25.8 38.9 102.0 94.1 322.8
Coondewanna 06/09 07:00 14.5 65 8.08 8 19 24 1014.2 0 18.4 24.9 37.4 98.2 90.9 312.1
Cunderdin Airport 06/09 07:00 11.5 90 9.3 9.9 11 15 1020.6 0 21.2 28.0 44.3 116.2 111.7 384.7
Curtin 06/09 07:00 20.6 82 14.67 17.4 7 11 1014.8 0 32.1 34.0 61.3 161.9 171.4 594.2
Dalwallinu 06/09 07:00 10 94 8.83 9.1 15 20 1019 0 20.3 27.7 43.0 112.9 107.1 368.3
Derby 06/09 07:00 23.4 75 15.77 18.7 6 9 1015.5 0 34.2 34.9 64.0 169.0 181.0 628.1
Dwellingup 06/09 07:00 11 86 8.61 8.8 22 39 1022 8.4 19.7 27.1 41.7 109.3 102.9 353.8
Eliwana Airport 06/09 07:00 15.4 69 9.07 9.7 13 17 1013.1 0 20.5 26.2 40.9 107.3 102.5 353.1
Esperance 06/09 07:00 11.2 93 9.43 10.1 7 7 1021 0 21.5 28.4 45.0 118.2 114.0 392.7
Esperance Airport 06/09 07:00 10.1 92 8.7 8.9 0 2 1021.2 0 20.0 27.5 42.5 111.5 105.3 362.1
Eucla 06/09 07:00 11.3 74 7.55 6.8 20 28 1022.4 0 17.5 25.3 37.2 97.3 88.2 302.5
Fitzroy Crossing 06/09 07:00 23 62 12.74 15.3 9 13 1015 0 27.9 29.8 51.3 135.4 139.5 483.4
Forrest 06/09 07:00 11.3 75 7.65 7 1021.1 0 17.7 25.4 37.5 98.3 89.5 306.8
Fortescue Dave Forrest 06/09 07:00 17.7 49 7.39 6.9 7 9 1013.8 0 16.8 23.0 33.4 87.5 78.8 270.4
Garden Island 06/09 07:00 14.2 89 10.87 12.4 43 52 1022 4.2 24.4 29.9 49.5 130.2 129.8 448.4
Geraldton Airport 06/09 07:00 12.1 96 10.3 11.5 13 17 1019.1 25.8 23.3 29.5 48.2 126.7 124.9 430.8
Gerangamete (Cfa) 06/09 08:50 11.3 99 10.1 11.1 11 15 1013.1 4.6 22.9 29.2 47.5 124.9 122.7 423.2
Giles* 06/09 08:40 22.4 40 7.94 8.1 17 20 1016.5 0 17.8 22.7 33.6 87.9 80.8 277.8
Gingin Airport 06/09 07:00 12.2 91 9.82 10.8 20 26 1020.8 3 22.3 28.7 46.1 121.1 118.0 406.8
Golden Grove 06/09 07:00 12.8 78 8.74 9.1 11 17 1016.8 0 19.9 26.6 41.0 107.7 101.9 350.4
Gooseberry Hill 06/09 07:00 11.8 97 10.21 11.3 15 32 1013.1 0 23.2 29.2 47.7 125.4 123.5 425.9
Gudai-Darri Mine 06/09 07:00 19.1 45 7.38 6.9 28 41 1013.1 0 16.8 22.6 32.8 85.8 77.3 265.2
Halls Creek 06/09 08:40 24.8 41 9.33 10.7 6 7 1014.6 0 20.6 24.0 37.3 98.0 94.1 324.9
Hopetoun North 06/09 07:00 10.9 90 8.95 9.3 6 6 1020.7 0 20.5 27.6 43.1 113.1 107.7 370.4
Iron Bridge Mine 06/09 07:00 18.5 61 9.65 10.8 9 13 1013.8 0.2 21.6 26.2 41.6 109.3 106.0 365.6
Jacup 06/09 07:00 12 94 10.02 11.1 19 30 1021.8 0 22.7 29.2 47.1 123.9 121.3 418.2
Jandakot 06/09 07:00 12.6 91 10.07 11.2 19 26 1021.5 9.4 22.8 29.1 47.0 123.5 121.0 417.3
Kalgoorlie-Boulder 06/09 07:00 9.5 69 6.28 4.1 11 15 1017.1 0 14.8 23.5 32.7 85.5 73.2 249.5
Kalumburu 06/09 08:40 26.3 84 20.8 23.4 0 0 1015.9 0 44.6 43.0 84.6 223.9 249.2 866.0
Karijini North 06/09 07:00 18.2 49 7.62 7.3 35 44 1013.5 0 17.3 23.2 34.0 89.1 81.1 278.3
Karratha 06/09 07:00 19.1 60 9.83 11.2 24 32 1016.9 0 21.9 26.4 42.1 110.6 107.7 371.8
Katanning Rs 06/09 07:00 10.1 93 8.8 9 22 32 1022.7 7.8 20.2 27.7 43.0 112.8 106.9 367.5
Koolan Island / Koolan Central 06/09 07:00 23.8 93 20 22.6 4 7 1013.1 0 43.2 42.6 83.3 220.4 244.3 848.5
Kununurra Airport 06/09 08:40 25.2 71 16.53 19.6 6 7 1015.5 0 35.7 35.5 65.8 174.0 187.6 651.4
Lake Grace 06/09 07:00 10.8 91 9 9.4 9 15 1021.5 0 20.6 27.8 43.4 114.0 108.6 373.6
Lancelin (Defence) 06/09 07:00 14.8 99 12.54 14.6 30 46 1020.3 9.4 28.0 32.6 56.4 148.8 153.0 529.3
Laverton 06/09 07:00 14 76 9.17 9.8 15 20 1014.4 0.2 20.8 26.8 42.1 110.5 105.8 364.5
Learmonth 06/09 07:00 15.3 86 11.23 13 11 13 1018.9 0 25.1 30.1 50.2 132.1 132.8 458.8
Legendre Island 06/09 07:00 20.1 64 11.12 13.1 44 57 1016.5 0 24.6 28.2 46.7 122.8 123.0 425.4
Leinster 06/09 07:00 14.5 66 8.21 8.2 6 7 1010.2 0 18.7 25.0 37.8 99.1 92.2 317.0
Leonora Airport 06/09 07:00 15.1 53 6.84 5.6 19 24 1012.3 0 15.8 22.8 32.4 84.7 74.6 255.3
Lombadina 06/09 07:00 24.7 86 19.47 22.2 6 9 1015.7 0 42.0 41.2 79.9 211.4 233.4 810.7
Mandora 06/09 07:00 19.6 96 16.2 18.9 9 13 1014.2 0 35.5 37.2 69.2 182.8 196.8 682.7
Mandurah 06/09 07:00 12.9 81 9.13 9.7 20 35 1022.1 16 20.8 27.4 42.8 112.4 107.5 370.1
Manjimup 06/09 07:00 9 93 8.2 7.9 22 35 1024.7 10.4 19.0 27.1 41.1 107.8 100.1 343.6
Marble Bar 06/09 07:00 18.2 74 11.5 13.5 0 0 1013.7 0 25.5 29.3 49.2 129.7 131.0 453.1
Mardie 06/09 07:00 16 79 10.76 12.4 11 13 1017.5 0 24.1 29.0 47.7 125.4 124.8 431.2
Meekatharra 06/09 07:00 13.9 71 8.51 8.7 15 20 1013.6 0 19.4 25.7 39.4 103.4 97.1 334.0
Millendon (Swan Valley) 06/09 07:00 13.1 86 9.81 10.8 6 13 1020.9 2.8 22.2 28.4 45.5 119.6 116.5 401.7
Morawa Airport 06/09 07:00 10.7 94 9.23 9.8 9 13 1018.8 0.2 21.1 28.1 44.3 116.4 111.7 384.6
Mount Keith 06/09 07:00 13.8 53 6.32 4.4 13 17 1011.1 0 14.7 22.3 31.0 80.9 69.4 236.9
Mount Magnet Airport 06/09 07:00 12.6 81 8.96 9.4 24 32 1014.5 0 20.4 26.9 41.9 110.1 104.9 361.1
Munglinup West 06/09 07:00 8.6 95 8.17 7.8 4 6 1021 0 18.9 27.0 41.0 107.6 99.9 342.8
Newdegate 06/09 07:00 8.8 88 7.66 6.9 0 0 1021.2 0 17.8 26.1 38.8 101.6 92.6 317.2
Newman Airport 06/09 07:00 16.9 52 7.48 7 22 33 1014.1 0 17.1 23.3 34.1 89.3 80.7 277.0
Norseman Airport 06/09 07:00 8.5 87 7.43 6.5 15 17 1019.1 0 17.3 25.7 37.9 99.2 89.6 306.9
North Island 06/09 07:00 16.9 89 12.8 15.1 48 63 1019 7.8 28.4 32.3 56.0 147.6 152.4 527.6
Onslow Airport 06/09 07:00 16.1 89 12.2 14.3 20 28 1019.2 0 27.2 31.5 53.9 142.1 145.3 502.6
Paraburdoo 06/09 07:00 16.3 61 8.46 8.8 15 20 1015.3 0 19.2 25.0 38.1 100.0 93.7 322.2
Pearce 06/09 07:00 13 89 10.09 11.2 13 15 1020.7 1.8 22.8 28.9 46.8 123.0 120.6 415.9
Perth 06/09 07:00 12.6 94 10.4 11.7 9 17 1021.4 10 23.5 29.6 48.4 127.3 125.7 433.8
Perth Airport 06/09 07:00 12.5 92 10.12 11.2 15 17 1020.9 6.6 22.9 29.2 47.2 124.2 121.8 420.2
Port Hedland 06/09 07:00 20.3 65 11.43 13.5 28 35 1015 0 25.3 28.6 47.7 125.6 126.7 438.2
Portable Btsa (Dfes) 06/09 06:50 11.9 95 10.06 11.2 0 0 1013.1 5.6 22.8 28.9 46.9 123.5 121.2 417.9
Portable Btsd (Dfes) 06/09 06:50 10.9 74 7.36 6.4 19 20 1013.1 0 17.1 24.7 36.2 94.9 85.5 292.9
Portable Btse (Dfes) 06/09 06:40 19.5 70 11.75 13.9 0 2 1013.1 0 26.0 29.3 49.4 130.2 132.1 457.2
Portable Btsf (Dfes) 06/09 06:00 16.2 52 7.17 6.4 2 4 1013.1 0 16.4 23.0 33.2 86.9 77.6 265.9
Portable Btsh (Dfes) 06/09 06:50 9.8 95 8.82 9 13 17 1013.1 0 20.3 27.5 42.8 112.4 106.7 367.0
Portable Btsj (Dfes) 06/09 06:50 12 91 9.7 10.6 13 17 1013.1 7.8 22.0 28.3 45.3 119.2 115.9 399.5
Portable Btsl (Dfes) 06/09 06:50 4.9 78 5.27 1.4 4 6 1013.1 0 12.8 23.0 30.4 79.3 63.9 216.3
Portable Btsm (Dfes) 06/09 06:50 14.8 56 7.09 6.3 4 7 1013.1 0 16.3 23.3 33.5 87.6 78.0 267.2
Portable Btsn (Dfes) 06/09 06:50 12.2 64 6.91 5.6 20 22 1013.1 0 16.1 23.7 33.9 88.7 78.3 268.0
Portable Btso (Dfes) 06/09 06:50 10.4 83 8 7.6 15 20 1013.1 4.4 18.5 25.9 39.0 102.4 94.6 324.8
Rocky Gully South 06/09 07:00 9 87 7.67 7 13 17 1013.1 3.2 17.8 25.8 38.4 100.6 91.8 314.8
Roebourne Airport 06/09 07:00 19.4 56 9.34 10.4 26 35 1016.7 0 20.9 25.6 40.0 105.1 101.1 348.5
Rottnest Island 06/09 07:00 14 82 9.89 11 57 65 1020.6 11.8 22.3 28.3 45.3 119.1 116.2 400.8
Salmon Gums Rs 06/09 07:00 6.7 100 7.6 6.7 2 4 1013.1 0 17.8 26.3 39.2 102.8 93.6 320.8
Shannon 06/09 07:00 9.3 97 8.72 8.8 11 15 1013.1 15.6 20.1 27.4 42.6 112.0 106.0 364.5
Shark Bay Airport 06/09 07:00 15.6 88 11.7 13.6 19 22 1017.5 1.2 26.1 30.7 52.0 136.9 138.8 479.9
Solomon Airport 06/09 07:00 14.6 67 8.38 8.5 9 15 1014.5 0 19.1 25.4 38.6 101.2 94.6 325.4
Southern Cross Airport 06/09 07:00 7.7 88 7.14 5.8 13 15 1018.5 0 16.7 25.5 37.0 96.9 86.5 295.9
Swanbourne 06/09 07:00 12.5 101 11.11 12.5 15 20 1013.1 12.2 25.1 30.6 51.2 134.9 135.4 467.6
Telfer 06/09 07:00 20.7 45 8.1 8.4 9 13 1012.7 0 18.2 23.2 34.7 90.9 84.1 289.4
Thevenard Island 06/09 07:00 17.8 75 11.38 13.3 44 57 1018.9 0 25.3 29.5 49.2 129.6 130.6 451.4
Troughton Island 06/09 08:40 27.9 76 20.56 23.3 19 20 1016 0 43.9 41.7 81.7 216.2 240.3 835.0
Truscott 06/09 08:40 26.4 84 20.91 23.5 9 11 1015.4 0 44.8 43.1 85.0 225.0 250.6 870.6
Walpole North 06/09 07:00 11.7 73 7.64 7 19 32 1024.8 0 17.6 25.4 37.5 98.0 89.2 305.7
Wandering 06/09 07:00 11.4 88 9.03 9.5 24 35 1013.1 2.6 20.6 27.3 42.8 112.5 107.4 369.7
Warburton 06/09 08:40 19.6 41 6.92 6 22 33 1014.3 0 15.8 21.9 31.0 81.1 71.6 245.1
West Angelas 06/09 07:00 14.8 64 8.11 8.1 13 20 1013.6 0 18.5 24.8 37.4 98.0 90.8 312.2
West Musgrave Airport 06/09 07:00 20 46 7.95 8 22 28 1013.1 0 17.9 23.2 34.5 90.3 83.1 285.7
Wiluna Airport 06/09 07:00 15.1 56 7.22 6.4 19 28 1012 0 16.6 23.3 33.8 88.5 79.2 271.5
Witchcliffe West 06/09 07:00 10.7 71 6.98 5.7 15 24 1025 6.6 16.3 24.6 35.3 92.2 81.6 279.1
Wyndham Airport 06/09 08:40 27 63 16.21 19.4 11 13 1015.4 0 34.9 34.2 62.9 166.3 178.7 620.7
Yampi Sound (Defence) 06/09 07:00 22 85 16.5 19.4 4 4 1019.4 0 35.9 37.0 68.7 181.6 195.8 679.6

Last Refresh: 06-Sep-2026 08:48:29

Bureau of Meteorology